createdAt,value
2022-09-14T00:00:43.992Z,17.63
2022-09-14T00:03:10.643Z,29.63
2022-09-14T00:05:37.590Z,18.80
2022-09-14T00:08:04.273Z,17.90
2022-09-14T00:10:31.119Z,19.67
2022-09-14T00:12:58.199Z,16.27
2022-09-14T00:15:24.762Z,20.93
2022-09-14T00:17:51.271Z,24.80
2022-09-14T00:20:17.977Z,20.63
2022-09-14T00:22:44.576Z,26.77
2022-09-14T00:25:11.331Z,32.63
2022-09-14T00:27:37.903Z,17.63
2022-09-14T00:30:05.747Z,32.07
2022-09-14T00:32:32.398Z,26.27
2022-09-14T00:34:59.025Z,20.87
2022-09-14T00:37:25.605Z,18.93
2022-09-14T00:39:52.312Z,16.20
2022-09-14T00:42:19.587Z,17.90
2022-09-14T00:44:46.137Z,15.93
2022-09-14T00:47:13.739Z,10.23
2022-09-14T00:49:41.274Z,11.93
2022-09-14T00:52:10.404Z,20.87
2022-09-14T00:54:39.211Z,12.40
2022-09-14T00:57:05.757Z,20.43
2022-09-14T00:59:34.912Z,18.23
2022-09-14T01:02:01.712Z,20.67
2022-09-14T01:04:28.542Z,21.93
2022-09-14T01:07:04.435Z,23.33
2022-09-14T01:09:33.750Z,15.57
2022-09-14T01:12:06.360Z,32.63
2022-09-14T01:14:42.394Z,24.47
2022-09-14T01:17:09.023Z,22.50
2022-09-14T01:19:54.361Z,34.83
2022-09-14T01:22:29.950Z,12.63
2022-09-14T01:25:03.848Z,18.17
2022-09-14T01:27:41.791Z,24.03
2022-09-14T01:30:12.581Z,22.70
2022-09-14T01:32:50.923Z,14.13
2022-09-14T01:35:33.913Z,15.30
2022-09-14T01:38:17.412Z,22.73
2022-09-14T01:40:46.053Z,21.87
2022-09-14T01:43:35.051Z,15.17
2022-09-14T01:46:08.969Z,16.73
2022-09-14T01:48:55.848Z,16.17
2022-09-14T01:51:31.338Z,14.70
2022-09-14T01:54:01.337Z,14.57
2022-09-14T01:56:33.863Z,12.30
2022-09-14T01:59:05.901Z,17.83
2022-09-14T02:01:37.871Z,23.83
2022-09-14T02:04:07.109Z,18.80
2022-09-14T02:06:33.973Z,15.30
2022-09-14T02:09:00.582Z,19.63
2022-09-14T02:11:28.523Z,19.17
2022-09-14T02:13:55.112Z,19.80
2022-09-14T02:16:22.535Z,21.07
2022-09-14T02:18:49.472Z,20.67
2022-09-14T02:21:17.776Z,21.20
2022-09-14T02:23:44.660Z,25.77
2022-09-14T02:26:11.327Z,21.70
2022-09-14T02:28:38.158Z,23.87
2022-09-14T02:31:19.982Z,27.70
2022-09-14T02:34:05.371Z,18.00
2022-09-14T02:36:47.578Z,29.70
2022-09-14T02:39:17.343Z,27.30
2022-09-14T02:42:04.287Z,30.33
2022-09-14T02:44:35.755Z,21.93
2022-09-14T02:47:12.806Z,27.13
2022-09-14T02:49:44.650Z,25.40
2022-09-14T02:52:11.298Z,26.00
2022-09-14T02:54:43.261Z,29.60
2022-09-14T02:57:09.995Z,31.33
2022-09-14T02:59:36.797Z,19.87
2022-09-14T03:02:03.903Z,20.73
2022-09-14T03:04:31.793Z,43.30
2022-09-14T03:06:58.634Z,24.20
2022-09-14T03:09:25.286Z,36.77
2022-09-14T03:11:51.879Z,33.17
2022-09-14T03:14:18.474Z,24.47
2022-09-14T03:16:45.126Z,34.67
2022-09-14T03:19:12.318Z,34.43
2022-09-14T03:21:39.308Z,29.03
2022-09-14T03:24:07.571Z,28.00
2022-09-14T03:26:36.819Z,33.57
2022-09-14T03:29:03.931Z,24.80
2022-09-14T03:31:31.496Z,22.77
2022-09-14T03:33:58.978Z,31.93
2022-09-14T03:36:26.930Z,31.57
2022-09-14T03:38:54.546Z,31.10
2022-09-14T03:41:21.750Z,31.77
2022-09-14T03:43:48.690Z,36.23
2022-09-14T03:46:16.666Z,27.53
2022-09-14T03:48:44.125Z,34.43
2022-09-14T03:51:12.331Z,36.23
2022-09-14T03:53:39.084Z,30.60
2022-09-14T03:56:10.758Z,29.10
2022-09-14T03:58:37.758Z,30.53
2022-09-14T04:01:08.110Z,32.83
2022-09-14T04:03:34.736Z,36.20
2022-09-14T04:06:05.226Z,32.97
2022-09-14T04:08:33.541Z,35.60
2022-09-14T04:11:00.366Z,45.83
2022-09-14T04:13:27.110Z,59.63
2022-09-14T04:15:57.932Z,39.43
2022-09-14T04:18:25.635Z,41.33
2022-09-14T04:20:58.706Z,33.03
2022-09-14T04:23:25.576Z,37.37
2022-09-14T04:25:52.573Z,36.10
2022-09-14T04:28:20.569Z,34.43
2022-09-14T04:30:58.422Z,47.57
2022-09-14T04:33:25.385Z,39.77
2022-09-14T04:35:58.274Z,45.63
2022-09-14T04:38:25.042Z,34.87
2022-09-14T04:40:51.876Z,44.47
2022-09-14T04:43:18.443Z,53.63
2022-09-14T04:45:45.672Z,67.57
2022-09-14T04:48:12.239Z,55.90
2022-09-14T04:50:38.856Z,69.77
2022-09-14T04:53:05.382Z,59.20
2022-09-14T04:55:31.963Z,55.30
2022-09-14T04:57:58.499Z,60.40
2022-09-14T05:00:25.203Z,77.37
2022-09-14T05:02:51.823Z,74.60
2022-09-14T05:05:18.509Z,75.80
2022-09-14T05:07:45.046Z,72.93
2022-09-14T05:10:12.118Z,65.63
2022-09-14T05:12:38.861Z,77.83
2022-09-14T05:15:06.112Z,74.33
2022-09-14T05:17:35.814Z,79.40
2022-09-14T05:20:02.473Z,84.97
2022-09-14T05:22:29.179Z,77.77
2022-09-14T05:24:55.804Z,79.27
2022-09-14T05:27:22.463Z,79.47
2022-09-14T05:29:49.087Z,58.53
2022-09-14T05:32:15.735Z,70.13
2022-09-14T05:34:42.371Z,57.00
2022-09-14T05:37:11.124Z,66.63
2022-09-14T05:39:37.872Z,63.77
2022-09-14T05:42:04.946Z,62.50
2022-09-14T05:44:31.685Z,73.43
2022-09-14T05:47:00.541Z,63.60
2022-09-14T05:49:27.559Z,67.73
2022-09-14T05:51:54.419Z,66.00
2022-09-14T05:54:21.236Z,69.60
2022-09-14T05:56:50.397Z,57.60
2022-09-14T05:59:17.699Z,69.27
2022-09-14T06:01:44.595Z,65.43
2022-09-14T06:04:11.781Z,52.57
2022-09-14T06:06:38.718Z,64.30
2022-09-14T06:09:13.177Z,58.80
2022-09-14T06:11:43.212Z,50.90
2022-09-14T06:14:10.282Z,48.13
2022-09-14T06:16:37.312Z,60.50
2022-09-14T06:19:04.296Z,50.23
2022-09-14T06:21:33.193Z,56.53
2022-09-14T06:24:00.478Z,58.90
2022-09-14T06:26:27.739Z,62.17
2022-09-14T06:28:54.786Z,57.63
2022-09-14T06:31:25.706Z,52.73
2022-09-14T06:33:56.880Z,51.23
2022-09-14T06:36:25.226Z,58.10
2022-09-14T06:38:52.476Z,56.03
2022-09-14T06:41:20.748Z,54.13
2022-09-14T06:43:48.034Z,67.83
2022-09-14T06:46:21.678Z,60.10
2022-09-14T06:48:51.198Z,46.33
2022-09-14T06:51:25.911Z,67.60
2022-09-14T06:53:54.140Z,62.27
2022-09-14T06:56:21.448Z,51.13
2022-09-14T06:58:48.255Z,52.63
2022-09-14T07:01:19.809Z,41.87
2022-09-14T07:03:47.408Z,53.63
2022-09-14T07:06:18.077Z,36.43
2022-09-14T07:08:45.341Z,37.23
2022-09-14T07:11:16.702Z,39.73
2022-09-14T07:13:43.593Z,39.27
2022-09-14T07:16:11.610Z,37.23
2022-09-14T07:18:38.697Z,34.33
2022-09-14T07:21:07.612Z,45.73
2022-09-14T07:23:36.372Z,42.50
2022-09-14T07:26:05.455Z,29.90
2022-09-14T07:28:33.155Z,26.43
2022-09-14T07:31:00.648Z,27.37
2022-09-14T07:33:27.745Z,21.87
2022-09-14T07:35:54.700Z,25.63
2022-09-14T07:38:35.829Z,34.37
2022-09-14T07:41:08.173Z,24.03
2022-09-14T07:43:35.016Z,25.37
2022-09-14T07:46:03.938Z,14.50
2022-09-14T07:48:35.049Z,18.53
2022-09-14T07:51:10.366Z,19.43
2022-09-14T07:53:42.703Z,23.10
2022-09-14T07:56:09.950Z,19.70
2022-09-14T07:58:36.919Z,17.77
2022-09-14T08:01:05.488Z,19.40
2022-09-14T08:03:35.715Z,23.17
2022-09-14T08:06:03.216Z,39.33
2022-09-14T08:08:30.801Z,20.43
2022-09-14T08:11:05.740Z,25.00
2022-09-14T08:13:33.974Z,13.03
2022-09-14T08:16:01.001Z,13.60
2022-09-14T08:18:30.709Z,20.50
2022-09-14T08:20:57.298Z,22.93
2022-09-14T08:23:24.132Z,12.67
2022-09-14T08:25:50.948Z,15.83
2022-09-14T08:28:17.815Z,16.67
2022-09-14T08:30:44.704Z,30.47
2022-09-14T08:33:11.382Z,20.73
2022-09-14T08:35:57.468Z,21.37
2022-09-14T08:38:25.426Z,19.53
2022-09-14T08:40:52.555Z,21.57
2022-09-14T08:43:21.555Z,19.90
2022-09-14T08:45:48.885Z,22.97
2022-09-14T08:48:31.352Z,24.23
2022-09-14T08:50:57.931Z,20.37
2022-09-14T08:53:25.212Z,22.63
2022-09-14T08:55:56.070Z,13.50
2022-09-14T08:58:22.593Z,25.93
2022-09-14T09:01:09.469Z,23.17
2022-09-14T09:03:54.796Z,21.20
2022-09-14T09:06:24.360Z,31.70
2022-09-14T09:09:09.709Z,17.03
2022-09-14T09:11:48.222Z,27.83
2022-09-14T09:14:35.137Z,36.43
2022-09-14T09:17:04.368Z,28.27
2022-09-14T09:19:34.211Z,25.63
2022-09-14T09:22:03.830Z,28.23
2022-09-14T09:24:36.906Z,20.80
2022-09-14T09:27:13.990Z,18.50
2022-09-14T09:29:40.623Z,24.33
2022-09-14T09:32:15.250Z,20.93
2022-09-14T09:35:06.534Z,21.27
2022-09-14T09:37:46.055Z,23.77
2022-09-14T09:40:17.644Z,19.53
2022-09-14T09:43:03.760Z,27.93
2022-09-14T09:45:48.807Z,21.17
2022-09-14T09:48:17.671Z,21.97
2022-09-14T09:51:05.177Z,29.53
2022-09-14T09:53:33.565Z,23.00
2022-09-14T09:56:01.154Z,30.43
2022-09-14T09:58:38.626Z,28.23
2022-09-14T10:01:19.514Z,27.13
2022-09-14T10:04:00.791Z,36.23
2022-09-14T10:06:27.816Z,25.50
2022-09-14T10:08:55.151Z,26.57
2022-09-14T10:11:36.880Z,24.33
2022-09-14T10:14:04.947Z,22.63
2022-09-14T10:16:42.073Z,16.93
2022-09-14T10:19:16.270Z,18.07
2022-09-14T10:22:04.536Z,17.73
2022-09-14T10:24:33.100Z,34.00
2022-09-14T10:27:00.220Z,15.40
2022-09-14T10:29:30.583Z,13.70
2022-09-14T10:32:01.104Z,15.10
2022-09-14T10:34:28.362Z,17.63
2022-09-14T10:37:04.653Z,14.40
2022-09-14T10:39:37.040Z,12.30
2022-09-14T10:42:07.003Z,13.33
2022-09-14T10:44:40.021Z,16.50
2022-09-14T10:47:09.924Z,21.00
2022-09-14T10:49:41.057Z,12.90
2022-09-14T10:52:15.741Z,21.00
2022-09-14T10:54:42.510Z,13.63
2022-09-14T10:57:28.350Z,12.73
2022-09-14T10:59:56.409Z,15.53
2022-09-14T11:02:32.754Z,16.07
2022-09-14T11:05:10.912Z,15.13
2022-09-14T11:07:43.922Z,14.70
2022-09-14T11:10:21.659Z,16.97
2022-09-14T11:13:03.885Z,12.40
2022-09-14T11:15:36.831Z,17.53
2022-09-14T11:18:06.556Z,17.20
2022-09-14T11:21:05.940Z,16.40
2022-09-14T11:24:09.591Z,20.97
2022-09-14T11:26:50.743Z,20.57
2022-09-14T11:29:17.445Z,11.10
2022-09-14T11:31:59.010Z,11.90
2022-09-14T11:34:55.059Z,13.53
2022-09-14T11:37:26.931Z,13.47
2022-09-14T11:40:00.028Z,12.47
2022-09-14T11:42:30.995Z,10.03
2022-09-14T11:45:20.186Z,13.63
2022-09-14T11:47:52.449Z,19.93
2022-09-14T11:50:21.447Z,12.00
2022-09-14T11:52:50.314Z,5.60
2022-09-14T11:55:18.148Z,7.10
2022-09-14T11:57:45.856Z,4.50
2022-09-14T12:00:24.839Z,6.93
2022-09-14T12:03:14.660Z,12.30
2022-09-14T12:05:44.546Z,7.40
2022-09-14T12:08:23.361Z,13.13
2022-09-14T12:11:00.147Z,7.73
2022-09-14T12:13:26.909Z,6.83
2022-09-14T12:16:07.275Z,13.93
2022-09-14T12:18:38.345Z,5.70
2022-09-14T12:21:20.390Z,8.50
2022-09-14T12:23:51.767Z,3.90
2022-09-14T12:26:18.507Z,6.33
2022-09-14T12:28:50.390Z,4.57
2022-09-14T12:31:32.755Z,9.90
2022-09-14T12:34:08.649Z,4.90
2022-09-14T12:36:38.271Z,6.87
2022-09-14T12:39:06.938Z,5.93
2022-09-14T12:41:36.471Z,7.53
2022-09-14T12:44:04.605Z,6.23
2022-09-14T12:46:33.042Z,7.40
2022-09-14T12:49:02.669Z,5.23
2022-09-14T12:51:29.389Z,22.13
2022-09-14T12:53:59.284Z,8.03
2022-09-14T12:56:29.067Z,13.80
2022-09-14T12:59:01.273Z,14.03
2022-09-14T13:01:50.780Z,13.97
2022-09-14T13:04:25.596Z,15.67
2022-09-14T13:06:52.932Z,17.07
2022-09-14T13:09:24.192Z,15.40
2022-09-14T13:11:58.472Z,16.20
2022-09-14T13:14:27.410Z,15.97
2022-09-14T13:16:54.172Z,14.83
2022-09-14T13:19:28.284Z,21.77
2022-09-14T13:21:56.403Z,35.83
2022-09-14T13:24:25.740Z,35.90
2022-09-14T13:26:53.774Z,26.57
2022-09-14T13:29:20.696Z,23.07
2022-09-14T13:31:47.549Z,24.00
2022-09-14T13:34:24.925Z,20.93
2022-09-14T13:36:52.089Z,16.27
2022-09-14T13:39:18.759Z,17.70
2022-09-14T13:41:45.813Z,15.27
2022-09-14T13:44:12.574Z,22.97
2022-09-14T13:46:39.510Z,16.77
2022-09-14T13:49:07.074Z,18.20
2022-09-14T13:51:35.473Z,7.67
2022-09-14T13:54:28.803Z,2.70
2022-09-14T13:57:13.444Z,2.87
2022-09-14T14:00:01.509Z,3.37
2022-09-14T14:02:33.537Z,3.63
2022-09-14T14:05:00.399Z,5.43
2022-09-14T14:07:31.163Z,4.90
2022-09-14T14:09:58.359Z,3.90
2022-09-14T14:12:42.020Z,3.27
2022-09-14T14:15:12.192Z,4.93
2022-09-14T14:17:39.817Z,4.00
2022-09-14T14:20:25.462Z,7.17
2022-09-14T14:22:58.209Z,4.67
2022-09-14T14:25:28.761Z,4.13
2022-09-14T14:27:59.257Z,10.20
2022-09-14T14:30:28.357Z,6.93
2022-09-14T14:32:56.030Z,13.07
2022-09-14T14:35:24.579Z,9.00
2022-09-14T14:37:51.449Z,11.60
2022-09-14T14:40:18.892Z,13.73
2022-09-14T14:42:45.986Z,9.97
2022-09-14T14:45:14.347Z,10.70
2022-09-14T14:47:41.111Z,8.17
2022-09-14T14:50:15.380Z,12.40
2022-09-14T14:52:41.997Z,13.23
2022-09-14T14:55:09.098Z,13.47
2022-09-14T14:57:37.357Z,10.40
2022-09-14T15:00:04.755Z,11.10
2022-09-14T15:02:31.385Z,10.50
2022-09-14T15:04:58.114Z,11.73
2022-09-14T15:07:35.939Z,7.77
2022-09-14T15:10:13.843Z,8.10
2022-09-14T15:12:40.638Z,12.37
2022-09-14T15:15:11.488Z,12.30
2022-09-14T15:17:38.286Z,10.23
2022-09-14T15:20:07.954Z,10.23
2022-09-14T15:22:36.269Z,13.70
2022-09-14T15:25:04.199Z,18.03
2022-09-14T15:27:31.267Z,20.60
2022-09-14T15:29:57.895Z,12.33
2022-09-14T15:32:24.490Z,11.70
2022-09-14T15:34:52.906Z,13.73
2022-09-14T15:37:19.605Z,13.70
2022-09-14T15:39:50.119Z,14.47
2022-09-14T15:42:20.329Z,9.30
2022-09-14T15:44:47.034Z,11.57
2022-09-14T15:47:17.129Z,10.93
2022-09-14T15:49:43.892Z,6.97
2022-09-14T15:52:11.732Z,12.53
2022-09-14T15:54:38.932Z,7.73
2022-09-14T15:57:08.577Z,10.10
2022-09-14T15:59:37.903Z,13.57
2022-09-14T16:02:04.765Z,13.67
2022-09-14T16:04:36.209Z,12.17
2022-09-14T16:07:05.335Z,12.07
2022-09-14T16:09:34.082Z,14.67
2022-09-14T16:12:03.326Z,9.90
2022-09-14T16:14:29.935Z,32.93
2022-09-14T16:16:56.709Z,11.87
2022-09-14T16:19:23.449Z,9.97
2022-09-14T16:21:53.587Z,9.40
2022-09-14T16:24:21.045Z,14.40
2022-09-14T16:26:47.897Z,9.27
2022-09-14T16:29:15.241Z,15.07
2022-09-14T16:31:43.030Z,14.03
2022-09-14T16:34:29.008Z,9.93
2022-09-14T16:36:56.679Z,12.13
2022-09-14T16:39:25.184Z,13.30
2022-09-14T16:41:52.619Z,13.37
2022-09-14T16:44:20.343Z,10.00
2022-09-14T16:46:48.819Z,11.10
2022-09-14T16:49:16.077Z,9.80
2022-09-14T16:51:42.786Z,14.90
2022-09-14T16:54:10.715Z,11.50
2022-09-14T16:56:38.218Z,14.10
2022-09-14T16:59:05.524Z,13.07
2022-09-14T17:01:33.833Z,21.43
2022-09-14T17:04:07.211Z,9.03
2022-09-14T17:06:34.753Z,10.07
2022-09-14T17:09:03.593Z,11.23
2022-09-14T17:11:31.390Z,9.63
2022-09-14T17:13:58.339Z,23.07
2022-09-14T17:16:26.073Z,13.87
2022-09-14T17:18:57.217Z,16.33
2022-09-14T17:21:25.834Z,9.03
2022-09-14T17:23:52.669Z,17.50
2022-09-14T17:26:20.801Z,23.97
2022-09-14T17:28:49.593Z,12.30
2022-09-14T17:31:20.813Z,11.30
2022-09-14T17:33:47.455Z,13.63
2022-09-14T17:36:14.683Z,13.97
2022-09-14T17:38:42.306Z,19.10
2022-09-14T17:41:10.584Z,12.80
2022-09-14T17:43:38.116Z,17.67
2022-09-14T17:46:07.951Z,14.47
2022-09-14T17:48:37.879Z,13.47
2022-09-14T17:51:06.294Z,20.33
2022-09-14T17:53:39.974Z,22.27
2022-09-14T17:56:07.784Z,21.30
2022-09-14T17:58:35.152Z,20.33
2022-09-14T18:01:06.996Z,17.80
2022-09-14T18:03:34.292Z,18.80
2022-09-14T18:06:01.393Z,25.47
2022-09-14T18:08:28.235Z,20.03
2022-09-14T18:10:55.201Z,25.27
2022-09-14T18:13:22.082Z,24.33
2022-09-14T18:15:54.437Z,26.13
2022-09-14T18:18:21.140Z,30.67
2022-09-14T18:20:49.001Z,21.20
2022-09-14T18:23:16.292Z,20.50
2022-09-14T18:25:43.377Z,38.07
2022-09-14T18:28:09.966Z,26.30
2022-09-14T18:30:41.630Z,26.60
2022-09-14T18:33:10.498Z,33.97
2022-09-14T18:35:40.356Z,34.80
2022-09-14T18:38:07.312Z,34.40
2022-09-14T18:40:34.728Z,61.10
2022-09-14T18:43:03.067Z,38.33
2022-09-14T18:45:30.493Z,38.87
2022-09-14T18:47:57.399Z,39.80
2022-09-14T18:50:25.114Z,37.77
2022-09-14T18:52:52.037Z,39.37
2022-09-14T18:55:19.258Z,50.73
2022-09-14T18:57:47.335Z,51.27
2022-09-14T19:00:18.297Z,43.37
2022-09-14T19:02:50.634Z,45.27
2022-09-14T19:05:17.411Z,44.47
2022-09-14T19:07:44.414Z,50.47
2022-09-14T19:10:11.789Z,46.87
2022-09-14T19:12:38.893Z,43.37
2022-09-14T19:15:05.726Z,36.70
2022-09-14T19:17:32.539Z,49.23
2022-09-14T19:19:59.900Z,53.23
2022-09-14T19:22:28.270Z,45.47
2022-09-14T19:24:54.915Z,48.07
2022-09-14T19:27:22.604Z,50.80
2022-09-14T19:29:49.412Z,48.37
2022-09-14T19:32:16.123Z,47.30
2022-09-14T19:34:42.815Z,55.20
2022-09-14T19:37:10.601Z,56.90
2022-09-14T19:39:37.412Z,58.73
2022-09-14T19:42:04.255Z,65.63
2022-09-14T19:44:30.936Z,61.60
2022-09-14T19:46:57.633Z,61.63
2022-09-14T19:49:25.166Z,67.77
2022-09-14T19:51:53.607Z,62.30
2022-09-14T19:54:20.358Z,56.87
2022-09-14T19:56:47.069Z,69.07
2022-09-14T19:59:14.146Z,73.60
2022-09-14T20:01:40.833Z,85.93
2022-09-14T20:04:07.835Z,74.63
2022-09-14T20:06:40.143Z,72.33
2022-09-14T20:09:08.071Z,66.43
2022-09-14T20:11:35.335Z,86.77
2022-09-14T20:14:03.883Z,70.80
2022-09-14T20:16:32.333Z,75.63
2022-09-14T20:18:59.868Z,65.43
2022-09-14T20:21:27.062Z,72.40
2022-09-14T20:24:15.119Z,72.50
2022-09-14T20:26:42.642Z,66.00
2022-09-14T20:29:09.229Z,76.67
2022-09-14T20:31:36.928Z,76.10
2022-09-14T20:34:04.373Z,75.20
2022-09-14T20:36:30.961Z,89.63
2022-09-14T20:38:59.121Z,91.27
2022-09-14T20:41:29.988Z,81.10
2022-09-14T20:43:56.845Z,80.57
2022-09-14T20:46:37.342Z,74.10
2022-09-14T20:49:04.637Z,96.90
2022-09-14T20:51:31.377Z,93.47
2022-09-14T20:54:02.047Z,85.90
2022-09-14T20:56:30.027Z,86.13
2022-09-14T20:58:57.970Z,100.10
2022-09-14T21:01:25.652Z,91.57
2022-09-14T21:03:52.681Z,83.47
2022-09-14T21:06:20.875Z,85.90
2022-09-14T21:08:47.967Z,88.90
2022-09-14T21:11:16.123Z,96.03
2022-09-14T21:13:43.180Z,99.03
2022-09-14T21:16:11.218Z,133.77
2022-09-14T21:18:37.813Z,91.03
2022-09-14T21:21:05.525Z,115.73
2022-09-14T21:23:32.073Z,113.40
2022-09-14T21:25:58.693Z,122.07
2022-09-14T21:28:25.394Z,125.90
2022-09-14T21:30:52.015Z,105.47
2022-09-14T21:33:18.588Z,95.93
2022-09-14T21:35:45.167Z,100.60
2022-09-14T21:38:11.696Z,111.70
2022-09-14T21:40:43.218Z,99.30
2022-09-14T21:43:09.768Z,93.17
2022-09-14T21:45:36.389Z,110.60
2022-09-14T21:48:02.998Z,152.93
2022-09-14T21:50:29.510Z,136.13
2022-09-14T21:52:56.058Z,110.40
2022-09-14T21:55:22.598Z,111.83
2022-09-14T21:57:50.448Z,108.43
2022-09-14T22:00:16.999Z,138.97
2022-09-14T22:02:43.647Z,113.03
2022-09-14T22:05:10.318Z,125.63
2022-09-14T22:07:36.862Z,112.70
2022-09-14T22:10:03.691Z,123.07
2022-09-14T22:12:30.947Z,122.03
2022-09-14T22:14:57.499Z,124.27
2022-09-14T22:17:24.052Z,129.67
2022-09-14T22:19:52.510Z,99.40
2022-09-14T22:22:19.022Z,106.40
2022-09-14T22:24:45.670Z,89.97
2022-09-14T22:27:12.354Z,75.70
2022-09-14T22:29:40.648Z,90.47
2022-09-14T22:32:08.150Z,84.00
2022-09-14T22:34:35.147Z,96.30
2022-09-14T22:37:02.134Z,102.97
2022-09-14T22:39:29.567Z,85.60
2022-09-14T22:41:56.064Z,93.63
2022-09-14T22:44:22.577Z,87.63
2022-09-14T22:46:49.100Z,87.33
2022-09-14T22:49:16.442Z,73.07
2022-09-14T22:51:43.017Z,81.17
2022-09-14T22:54:09.535Z,66.47
2022-09-14T22:56:37.079Z,70.10
2022-09-14T22:59:08.048Z,89.13
2022-09-14T23:01:35.994Z,78.30
2022-09-14T23:04:07.339Z,71.93
2022-09-14T23:06:44.490Z,63.50
2022-09-14T23:09:12.085Z,61.47
2022-09-14T23:11:38.631Z,74.70
2022-09-14T23:14:06.263Z,64.97
2022-09-14T23:16:32.868Z,60.73
2022-09-14T23:19:00.655Z,74.33
2022-09-14T23:21:28.520Z,80.77
2022-09-14T23:23:56.452Z,67.43
2022-09-14T23:26:23.687Z,71.77
2022-09-14T23:28:51.164Z,68.90
2022-09-14T23:31:17.854Z,68.77
2022-09-14T23:33:44.400Z,104.37
2022-09-14T23:36:10.922Z,95.77
2022-09-14T23:38:37.424Z,76.40
2022-09-14T23:41:04.089Z,83.27
2022-09-14T23:43:30.604Z,86.33
2022-09-14T23:45:57.196Z,109.63
2022-09-14T23:48:23.712Z,105.33
2022-09-14T23:50:57.208Z,96.03
2022-09-14T23:53:23.794Z,74.87
2022-09-14T23:55:50.332Z,81.20
2022-09-14T23:58:16.883Z,91.37
